Turnersburg, North Carolina
Current Conditions -  °F | °C
As of 7:35 AM on Tuesday 27 Jan 2015 (Local Time) from KSVH Reporting Station
Overcast Overcast  
Wind Chill: 29°   Ceiling: 12000
Heat Index: 29°   Visibility: 10mi
Dew Point: 19°   Wind: 3mph
Humidity: 67%   Direction: 320°NW
Pressure: 29.8"   Gusts: NA
Location:  35.91°N, 80.81°W
Report Text: KSVH 271235Z AUTO 32003KT 10SM OVC120 M02/M07 A2980 RMK AO2 T10171072
Loading
Personal Weather Stations






























Interactive Weather Map New forecast layout! Learn more

10-Day Weather Forecast

Advertisements
Track Severe Weather on mobile